WetterOnline ( http://www.wetteronline.de )

Wetter aktuell Wolfhagen

Aktuelles Wetter: Schauenburg-Elgershausen (317m)

6-stündlich | Neueste Meldungen
Ortszeit Temperatur Wetter
Di, 23.05. 14:00 22.5° C wolkig
Di, 23.05. 8:00 14.0° C bedeckt
Di, 23.05. 2:00 10.5° C bewölkt
Mo, 22.05. 20:00 18.5° C wolkenlos
Ortszeit Temperatur Wetter
Di, 23.05. 18:30 20.1° C wolkig
Di, 23.05. 18:00 21.0° C wolkig
Di, 23.05. 17:30 21.5° C bewölkt
Di, 23.05. 17:00 21.7° C bewölkt
Di, 23.05. 16:30 21.5° C bewölkt
Di, 23.05. 16:00 21.6° C bedeckt
Ortszeit Relative Feuchte Sichtweite
Di, 23.05. 14:00 43% 40 km
Di, 23.05. 8:00 80% 24 km
Di, 23.05. 2:00 89% 28 km
Mo, 22.05. 20:00 58% 50 km
Ortszeit Relative Feuchte Sichtweite
Di, 23.05. 18:30 56% 27 km
Di, 23.05. 18:00 55% 27 km
Di, 23.05. 17:30 57% 45 km
Di, 23.05. 17:00 52% 50 km
Di, 23.05. 16:30 55% 40 km
Di, 23.05. 16:00 55% 45 km
Ortszeit Niederschlagsmenge Niederschlagsart
Di, 23.05. 14:00 0,0 l/m2 in 6 Std. -
Di, 23.05. 8:00 0,0 l/m2 in 12 Std. -
Di, 23.05. 2:00 0,0 l/m2 in 6 Std. -
Mo, 22.05. 20:00 0,0 l/m2 in 12 Std. -
Ortszeit Niederschlagsmenge Niederschlagsart
Di, 23.05. 18:30 keine Meldung -
Di, 23.05. 18:00 0,0 l/m2 in 1 Std. -
Di, 23.05. 17:30 keine Meldung -
Di, 23.05. 17:00 0,0 l/m2 in 1 Std. -
Di, 23.05. 16:30 keine Meldung -
Di, 23.05. 16:00 0,0 l/m2 in 1 Std. -
Ortszeit Stärke Spitze Richtung
km/h Bft. km/h Grad Sektor
Di, 23.05. 14:00 14 3 29 260° W
Di, 23.05. 8:00 2 1 15 110° O
Di, 23.05. 2:00 7 2 11 10° N
Mo, 22.05. 20:00 7 2 22 170° S
Ortszeit Stärke Spitze Richtung
km/h Bft. km/h Grad Sektor
Di, 23.05. 18:30 18 3 36 310° NW
Di, 23.05. 18:00 18 3 32 300° NW
Di, 23.05. 17:30 14 3 29 310° NW
Di, 23.05. 17:00 13 3 30 290° W
Di, 23.05. 16:30 13 3 17 310° NW
Di, 23.05. 16:00 11 2 22 310° NW
Ortszeit Untergrenze Bedeckung Gattung
total tief tief mittel hoch
Di, 23.05. 14:00 1800 m 7/8 4/8 - - -
Di, 23.05. 8:00 4500 m 8/8 8/8 - - -
Di, 23.05. 2:00 6600 m 8/8 5/8 - - -
Mo, 22.05. 20:00 - 0/8 0/8 - - -
Ortszeit Bedeckungsgrad in Achtel und Wolkenuntergrenze
Di, 23.05. 18:30 1(1800m) 8(4500m)
Di, 23.05. 18:00 2(2100m) 8(4800m) 8(6000m)
Di, 23.05. 17:30 6(2100m) 8(5400m) 8(6900m)
Di, 23.05. 17:00 7(1800m) 8(5400m) 8(7500m)
Di, 23.05. 16:30 3(1800m) 7(2400m) 7(5100m)
Di, 23.05. 16:00 3(1800m) 8(2400m) 8(5400m)
Ortszeit Luftdruck NN (hPa) Tendenz (hPa in 3 Std.)
Di, 23.05. 14:00 1016 - 0,4
Di, 23.05. 8:00 1017 0,0
Di, 23.05. 2:00 1018 - 0,5
Mo, 22.05. 20:00 1017 - 0,9
Ortszeit Luftdruck NN (hPa) Tendenz (hPa in 3 Std.)
Di, 23.05. 18:30 1016 + 0,5
Di, 23.05. 18:00 1016 + 0,1
Di, 23.05. 17:30 1016 0,0
Di, 23.05. 17:00 1016 + 0,1
Di, 23.05. 16:30 1016 + 0,2
Di, 23.05. 16:00 1016 + 0,2
Ortszeit Schneehöhe (cm)
Di, 23.05. 14:00 -
Di, 23.05. 8:00 -
Di, 23.05. 2:00 -
Mo, 22.05. 20:00 -
Ortszeit Schneehöhe (cm)
Di, 23.05. 18:30 -
Di, 23.05. 18:00 -
Di, 23.05. 17:30 -
Di, 23.05. 17:00 -
Di, 23.05. 16:30 -
Di, 23.05. 16:00 -
Link zu dieser Seite / Seite empfehlen

Das Wetter in ...